createdAt,value
2023-02-02T00:01:34.930Z,100988.53
2023-02-02T00:06:37.190Z,101036.72
2023-02-02T00:11:39.561Z,101023.41
2023-02-02T00:16:49.485Z,101023.09
2023-02-02T00:21:51.660Z,101023.94
2023-02-02T00:26:58.196Z,101019.78
2023-02-02T00:32:00.354Z,100975.09
2023-02-02T00:37:02.688Z,100977.75
2023-02-02T00:42:05.033Z,101002.28
2023-02-02T00:47:07.243Z,100975.38
2023-02-02T00:52:09.519Z,101006.78
2023-02-02T00:57:15.515Z,101000.72
2023-02-02T01:02:17.659Z,100974.94
2023-02-02T01:07:19.813Z,100979.66
2023-02-02T01:12:22.064Z,100984.31
2023-02-02T01:17:24.304Z,101005.75
2023-02-02T01:22:26.621Z,100986.28
2023-02-02T01:27:28.789Z,100980.09
2023-02-02T01:32:30.951Z,100994.19
2023-02-02T01:37:33.165Z,100971.00
2023-02-02T01:42:35.297Z,100974.22
2023-02-02T01:47:44.029Z,101005.50
2023-02-02T01:52:49.898Z,100990.97
2023-02-02T01:58:07.184Z,101012.34
2023-02-02T02:03:14.414Z,101004.41
2023-02-02T02:08:22.273Z,100968.63
2023-02-02T02:13:46.626Z,101001.03
2023-02-02T02:18:48.704Z,101017.19
2023-02-02T02:24:33.811Z,101017.19
2023-02-02T02:30:24.460Z,101015.09
2023-02-02T02:35:35.443Z,101038.47
2023-02-02T02:40:40.529Z,101038.00
2023-02-02T02:45:44.970Z,101026.75
2023-02-02T02:50:47.060Z,101032.41
2023-02-02T02:56:05.211Z,101028.78
2023-02-02T03:01:16.229Z,101037.22
2023-02-02T03:06:21.352Z,101033.66
2023-02-02T03:11:23.556Z,100998.13
2023-02-02T03:16:25.749Z,101008.69
2023-02-02T03:21:27.909Z,100990.63
2023-02-02T03:26:30.191Z,101005.00
2023-02-02T03:31:32.439Z,100981.94
2023-02-02T03:36:34.635Z,101020.25
2023-02-02T03:41:36.813Z,101014.25
2023-02-02T03:46:38.981Z,101018.75
2023-02-02T03:51:41.185Z,101024.25
2023-02-02T03:56:43.361Z,101017.00
2023-02-02T04:01:45.478Z,101001.28
2023-02-02T04:06:47.643Z,101001.09
2023-02-02T04:11:49.812Z,100982.97
2023-02-02T04:16:52.126Z,101039.97
2023-02-02T04:21:54.638Z,101007.97
2023-02-02T04:26:56.728Z,101045.06
2023-02-02T04:31:58.859Z,101036.78
2023-02-02T04:37:01.362Z,101053.19
2023-02-02T04:42:03.988Z,101054.03
2023-02-02T04:47:06.138Z,101037.66
2023-02-02T04:52:08.458Z,101043.91
2023-02-02T04:57:10.615Z,101070.66
2023-02-02T05:02:12.721Z,101038.03
2023-02-02T05:07:14.840Z,101073.19
2023-02-02T05:12:16.985Z,101056.44
2023-02-02T05:17:19.281Z,101074.47
2023-02-02T05:22:21.456Z,101050.91
2023-02-02T05:27:23.589Z,101054.03
2023-02-02T05:32:26.069Z,101101.16
2023-02-02T05:37:28.206Z,101056.47
2023-02-02T05:42:30.374Z,101084.56
2023-02-02T05:47:32.567Z,101088.59
2023-02-02T05:52:36.128Z,101078.41
2023-02-02T05:57:38.289Z,101078.50
2023-02-02T06:02:40.546Z,101081.47
2023-02-02T06:07:42.657Z,101093.19
2023-02-02T06:12:44.866Z,101109.84
2023-02-02T06:17:47.046Z,101074.28
2023-02-02T06:22:49.207Z,101085.81
2023-02-02T06:27:55.289Z,101068.34
2023-02-02T06:32:59.810Z,101081.31
2023-02-02T06:38:02.150Z,101128.47
2023-02-02T06:43:04.741Z,101118.78
2023-02-02T06:48:11.153Z,101103.38
2023-02-02T06:53:13.205Z,101081.16
2023-02-02T06:58:15.327Z,101090.19
2023-02-02T07:03:18.159Z,101132.66
2023-02-02T07:08:20.663Z,101129.00
2023-02-02T07:13:22.825Z,101102.38
2023-02-02T07:18:25.054Z,101162.44
2023-02-02T07:23:30.308Z,101154.47
2023-02-02T07:28:32.695Z,101155.13
2023-02-02T07:33:39.012Z,101113.72
2023-02-02T07:38:41.215Z,101135.44
2023-02-02T07:43:43.802Z,101145.94
2023-02-02T07:48:46.209Z,101129.38
2023-02-02T07:53:50.803Z,101147.31
2023-02-02T07:58:55.151Z,101144.09
2023-02-02T08:04:00.767Z,101143.06
2023-02-02T08:09:08.125Z,101135.34
2023-02-02T08:14:14.467Z,101137.41
2023-02-02T08:19:17.502Z,101111.84
2023-02-02T08:24:19.656Z,101144.25
2023-02-02T08:29:21.801Z,101163.66
2023-02-02T08:34:23.964Z,101123.84
2023-02-02T08:39:26.217Z,101122.78
2023-02-02T08:44:28.498Z,101132.81
2023-02-02T08:49:50.562Z,101136.81
2023-02-02T08:54:52.711Z,101139.78
2023-02-02T08:59:54.922Z,101140.97
2023-02-02T09:04:57.105Z,101129.91
2023-02-02T09:09:59.194Z,101142.03
2023-02-02T09:15:01.407Z,101109.16
2023-02-02T09:20:03.875Z,101104.19
2023-02-02T09:25:06.431Z,101082.44
2023-02-02T09:30:09.740Z,101127.75
2023-02-02T09:35:11.955Z,101097.91
2023-02-02T09:40:19.477Z,101098.09
2023-02-02T09:45:39.656Z,101084.88
2023-02-02T09:50:53.901Z,101087.69
2023-02-02T09:56:01.476Z,101083.63
2023-02-02T10:01:27.260Z,101089.84
2023-02-02T10:06:35.483Z,101082.28
2023-02-02T10:12:19.326Z,101045.72
2023-02-02T10:17:21.341Z,101057.28
2023-02-02T10:22:28.464Z,101037.53
2023-02-02T10:27:41.267Z,101010.34
2023-02-02T10:33:10.614Z,101000.06
2023-02-02T10:38:36.728Z,101014.31
2023-02-02T10:44:07.985Z,101011.25
2023-02-02T10:49:22.420Z,101012.16
2023-02-02T10:54:56.521Z,100981.66
2023-02-02T11:00:06.328Z,100975.00
2023-02-02T11:05:35.895Z,100966.41
2023-02-02T11:10:38.240Z,100928.66
2023-02-02T11:15:40.377Z,100931.34
2023-02-02T11:20:42.874Z,100917.97
2023-02-02T11:25:45.369Z,100922.88
2023-02-02T11:30:52.903Z,100875.41
2023-02-02T11:35:58.706Z,100900.81
2023-02-02T11:41:11.461Z,100894.81
2023-02-02T11:46:24.881Z,100892.78
2023-02-02T11:51:29.864Z,100867.59
2023-02-02T11:56:33.144Z,100870.03
2023-02-02T12:01:41.665Z,100852.84
2023-02-02T12:06:44.540Z,100847.88
2023-02-02T12:12:08.561Z,100848.63
2023-02-02T12:17:28.178Z,100833.25
2023-02-02T12:22:33.100Z,100830.25
2023-02-02T12:27:52.258Z,100818.28
2023-02-02T12:33:36.133Z,100816.75
2023-02-02T12:39:09.116Z,100819.13
2023-02-02T12:44:14.142Z,100814.16
2023-02-02T12:50:03.272Z,100805.44
2023-02-02T12:55:31.612Z,100802.72
2023-02-02T13:00:48.812Z,100798.78
2023-02-02T13:06:36.821Z,100794.44
2023-02-02T13:11:46.147Z,100789.78
2023-02-02T13:16:53.722Z,100748.66
2023-02-02T13:22:00.724Z,100756.84
2023-02-02T13:27:06.517Z,100754.75
2023-02-02T13:32:21.420Z,100792.78
2023-02-02T13:37:33.363Z,100781.53
2023-02-02T13:43:13.160Z,100780.03
2023-02-02T13:48:31.831Z,100788.00
2023-02-02T13:53:40.116Z,100790.91
2023-02-02T13:59:12.743Z,100754.06
2023-02-02T14:04:25.827Z,100787.53
2023-02-02T14:09:36.473Z,100764.50
2023-02-02T14:14:46.421Z,100785.09
2023-02-02T14:19:54.639Z,100771.06
2023-02-02T14:24:57.513Z,100764.81
2023-02-02T14:30:00.760Z,100787.22
2023-02-02T14:35:11.589Z,100778.78
2023-02-02T14:40:16.723Z,100781.50
2023-02-02T14:45:36.948Z,100777.47
2023-02-02T14:50:38.908Z,100776.91
2023-02-02T14:56:03.414Z,100750.06
2023-02-02T15:01:26.203Z,100756.78
2023-02-02T15:06:40.896Z,100767.38
2023-02-02T15:12:07.065Z,100766.25
2023-02-02T15:17:25.325Z,100758.44
2023-02-02T15:22:37.488Z,100770.13
2023-02-02T15:27:48.103Z,100754.03
2023-02-02T15:32:57.806Z,100773.25
2023-02-02T15:38:05.038Z,100775.19
2023-02-02T15:43:11.473Z,100752.38
2023-02-02T15:48:30.715Z,100769.41
2023-02-02T15:53:46.267Z,100779.84
2023-02-02T15:58:51.145Z,100767.47
2023-02-02T16:04:08.635Z,100796.03
2023-02-02T16:09:22.911Z,100799.03
2023-02-02T16:14:25.212Z,100795.91
2023-02-02T16:19:27.448Z,100818.03
2023-02-02T16:24:33.406Z,100823.16
2023-02-02T16:29:36.121Z,100776.16
2023-02-02T16:34:41.212Z,100840.38
2023-02-02T16:39:43.548Z,100821.22
2023-02-02T16:44:45.607Z,100823.59
2023-02-02T16:49:47.806Z,100827.97
2023-02-02T16:54:55.972Z,100841.38
2023-02-02T17:00:02.272Z,100858.53
2023-02-02T17:05:23.561Z,100836.31
2023-02-02T17:10:32.444Z,100861.53
2023-02-02T17:15:37.018Z,100859.56
2023-02-02T17:20:41.050Z,100847.44
2023-02-02T17:25:44.186Z,100860.09
2023-02-02T17:30:50.262Z,100854.13
2023-02-02T17:35:56.306Z,100851.84
2023-02-02T17:41:03.731Z,100879.97
2023-02-02T17:46:06.278Z,100881.75
2023-02-02T17:51:15.607Z,100857.22
2023-02-02T17:56:18.668Z,100877.69
2023-02-02T18:01:20.885Z,100868.53
2023-02-02T18:06:22.989Z,100879.03
2023-02-02T18:11:25.276Z,100832.88
2023-02-02T18:16:27.438Z,100891.47
2023-02-02T18:21:30.298Z,100906.50
2023-02-02T18:26:34.852Z,100909.72
2023-02-02T18:31:37.238Z,100892.31
2023-02-02T18:36:40.724Z,100892.78
2023-02-02T18:41:42.832Z,100912.63
2023-02-02T18:46:45.034Z,100931.22
2023-02-02T18:51:48.223Z,100945.91
2023-02-02T18:56:50.603Z,100950.41
2023-02-02T19:01:52.675Z,100932.50
2023-02-02T19:07:13.481Z,100964.94
2023-02-02T19:12:16.075Z,100976.56
2023-02-02T19:17:22.607Z,100965.13
2023-02-02T19:22:30.693Z,100978.63
2023-02-02T19:27:32.806Z,100970.44
2023-02-02T19:32:35.378Z,100963.56
2023-02-02T19:37:40.266Z,100958.22
2023-02-02T19:42:50.372Z,100978.78
2023-02-02T19:47:56.156Z,100985.53
2023-02-02T19:52:58.295Z,100987.31
2023-02-02T19:58:18.216Z,100995.81
2023-02-02T20:03:43.270Z,100965.22
2023-02-02T20:08:45.509Z,100967.50
2023-02-02T20:13:49.021Z,100972.13
2023-02-02T20:18:54.477Z,100990.72
2023-02-02T20:23:56.672Z,100970.91
2023-02-02T20:29:01.214Z,100988.84
2023-02-02T20:34:20.715Z,100980.41
2023-02-02T20:39:37.289Z,100971.44
2023-02-02T20:44:39.452Z,100969.78
2023-02-02T20:49:41.739Z,100978.19
2023-02-02T20:54:43.816Z,100981.16
2023-02-02T20:59:45.989Z,100992.88
2023-02-02T21:04:48.579Z,100991.50
2023-02-02T21:09:51.718Z,101007.94
2023-02-02T21:14:54.710Z,101014.31
2023-02-02T21:19:56.947Z,101000.94
2023-02-02T21:24:59.124Z,100988.53
2023-02-02T21:30:01.242Z,100999.59
2023-02-02T21:35:04.995Z,100978.69
2023-02-02T21:40:28.101Z,100938.00
2023-02-02T21:45:36.196Z,100998.44
2023-02-02T21:50:41.965Z,101014.84
2023-02-02T21:55:52.647Z,101029.41
2023-02-02T22:01:00.511Z,100994.22
2023-02-02T22:06:29.397Z,101013.34
2023-02-02T22:11:44.648Z,100989.38
2023-02-02T22:16:50.570Z,101016.16
2023-02-02T22:21:54.479Z,101001.94
2023-02-02T22:26:59.243Z,100983.28
2023-02-02T22:32:02.117Z,100999.66
2023-02-02T22:37:04.249Z,101005.41
2023-02-02T22:42:06.400Z,100991.56
2023-02-02T22:47:08.464Z,100991.06
2023-02-02T22:52:10.639Z,100964.56
2023-02-02T22:57:12.893Z,100985.03
2023-02-02T23:02:15.031Z,100994.38
2023-02-02T23:07:17.247Z,100979.34
2023-02-02T23:12:19.345Z,101001.94
2023-02-02T23:17:21.461Z,101015.59
2023-02-02T23:22:23.605Z,101001.75
2023-02-02T23:27:26.341Z,101019.00
2023-02-02T23:32:28.516Z,100998.19
2023-02-02T23:37:30.865Z,101000.22
2023-02-02T23:42:33.960Z,101010.25
2023-02-02T23:47:36.475Z,100983.22
2023-02-02T23:52:39.634Z,100964.06
2023-02-02T23:57:41.789Z,100986.94
